createdAt,value
2022-12-31T00:04:55.789Z,70.96
2022-12-31T00:09:58.866Z,70.93
2022-12-31T00:15:02.103Z,71.05
2022-12-31T00:20:06.823Z,71.42
2022-12-31T00:25:10.436Z,71.36
2022-12-31T00:30:14.611Z,70.55
2022-12-31T00:35:17.628Z,70.61
2022-12-31T00:40:20.781Z,70.52
2022-12-31T00:45:23.804Z,70.46
2022-12-31T00:50:26.874Z,70.20
2022-12-31T00:55:31.019Z,69.90
2022-12-31T01:00:34.115Z,70.22
2022-12-31T01:05:37.473Z,69.90
2022-12-31T01:10:59.951Z,69.54
2022-12-31T01:16:11.144Z,69.31
2022-12-31T01:21:15.371Z,68.83
2022-12-31T01:26:19.724Z,68.60
2022-12-31T01:31:25.144Z,68.86
2022-12-31T01:36:30.702Z,68.45
2022-12-31T01:41:37.224Z,68.63
2022-12-31T01:46:45.850Z,68.48
2022-12-31T01:51:57.515Z,68.02
2022-12-31T01:57:01.688Z,68.05
2022-12-31T02:02:06.178Z,68.48
2022-12-31T02:07:10.463Z,67.83
2022-12-31T02:12:13.550Z,68.43
2022-12-31T02:17:55.211Z,68.05
2022-12-31T02:23:40.562Z,67.91
2022-12-31T02:28:49.498Z,68.39
2022-12-31T02:34:00.911Z,68.22
2022-12-31T02:39:07.021Z,68.15
2022-12-31T02:44:34.044Z,67.95
2022-12-31T02:50:01.805Z,67.64
2022-12-31T02:55:33.936Z,68.38
2022-12-31T03:01:04.318Z,67.65
2022-12-31T03:06:09.540Z,67.94
2022-12-31T03:11:32.498Z,68.24
2022-12-31T03:16:35.580Z,68.23
2022-12-31T03:21:59.028Z,68.46
2022-12-31T03:27:02.098Z,69.09
2022-12-31T03:32:05.396Z,68.53
2022-12-31T03:37:08.753Z,68.97
2022-12-31T03:42:11.841Z,68.49
2022-12-31T03:47:14.948Z,68.35
2022-12-31T03:52:18.046Z,68.08
2022-12-31T03:57:21.116Z,68.51
2022-12-31T04:02:28.593Z,68.76
2022-12-31T04:07:32.458Z,68.05
2022-12-31T04:12:35.885Z,67.83
2022-12-31T04:17:38.908Z,66.83
2022-12-31T04:22:43.054Z,67.06
2022-12-31T04:27:47.454Z,66.24
2022-12-31T04:32:50.548Z,65.80
2022-12-31T04:37:53.525Z,65.74
2022-12-31T04:42:56.644Z,65.26
2022-12-31T04:47:59.689Z,65.41
2022-12-31T04:53:02.748Z,65.07
2022-12-31T04:58:07.336Z,65.10
2022-12-31T05:03:19.500Z,64.74
2022-12-31T05:08:22.553Z,64.25
2022-12-31T05:13:32.763Z,63.63
2022-12-31T05:18:37.161Z,63.30
2022-12-31T05:23:40.236Z,63.27
2022-12-31T05:28:43.449Z,62.98
2022-12-31T05:33:46.555Z,62.83
2022-12-31T05:38:49.631Z,62.82
2022-12-31T05:43:52.705Z,62.90
2022-12-31T05:48:55.749Z,62.72
2022-12-31T05:53:58.849Z,62.64
2022-12-31T05:59:01.882Z,62.21
2022-12-31T06:04:05.152Z,61.99
2022-12-31T06:09:08.504Z,62.02
2022-12-31T06:14:11.997Z,62.07
2022-12-31T06:19:15.129Z,61.72
2022-12-31T06:24:18.537Z,61.70
2022-12-31T06:29:21.631Z,61.37
2022-12-31T06:39:44.308Z,61.32
2022-12-31T06:44:47.365Z,61.16
2022-12-31T06:49:50.531Z,61.18
2022-12-31T06:54:53.944Z,60.82
2022-12-31T06:59:57.496Z,60.45
2022-12-31T07:05:31.019Z,60.17
2022-12-31T07:16:13.920Z,60.20
2022-12-31T07:21:22.408Z,60.03
2022-12-31T07:26:40.940Z,59.73
2022-12-31T07:32:16.153Z,59.16
2022-12-31T07:38:00.208Z,59.24
2022-12-31T07:43:35.198Z,59.02
2022-12-31T07:53:59.994Z,59.59
2022-12-31T07:59:11.681Z,60.63
2022-12-31T08:04:28.441Z,60.78
2022-12-31T08:09:45.568Z,61.46
2022-12-31T08:14:49.173Z,62.24
2022-12-31T08:19:52.607Z,62.79
2022-12-31T08:25:16.907Z,63.75
2022-12-31T08:30:21.996Z,64.13
2022-12-31T08:35:58.023Z,64.65
2022-12-31T08:41:23.110Z,65.25
2022-12-31T08:46:37.257Z,66.00
2022-12-31T08:51:41.141Z,68.53
2022-12-31T08:56:52.336Z,69.53
2022-12-31T09:02:34.287Z,70.75
2022-12-31T09:07:49.321Z,71.01
2022-12-31T09:13:17.428Z,71.57
2022-12-31T09:18:20.759Z,72.46
2022-12-31T09:23:24.076Z,72.72
2022-12-31T09:28:40.171Z,73.88
2022-12-31T09:33:48.952Z,73.25
2022-12-31T09:39:03.682Z,73.87
2022-12-31T09:50:21.836Z,73.28
2022-12-31T09:55:30.625Z,73.22
2022-12-31T10:00:45.431Z,73.86
2022-12-31T10:06:02.167Z,73.46
2022-12-31T10:11:22.557Z,73.17
2022-12-31T10:16:51.820Z,73.47
2022-12-31T10:27:44.570Z,73.61
2022-12-31T10:33:09.215Z,73.52
2022-12-31T10:38:28.303Z,73.38
2022-12-31T10:43:37.120Z,73.66
2022-12-31T10:48:45.730Z,72.85
2022-12-31T10:54:03.563Z,73.03
2022-12-31T10:59:24.383Z,72.37
2022-12-31T11:04:30.503Z,72.12
2022-12-31T11:10:07.056Z,72.32
2022-12-31T11:15:39.035Z,72.32
2022-12-31T11:21:28.047Z,71.63
2022-12-31T11:26:40.046Z,71.67
2022-12-31T11:31:45.791Z,71.85
2022-12-31T11:37:06.893Z,71.66
2022-12-31T11:42:37.639Z,71.70
2022-12-31T11:48:29.203Z,71.76
2022-12-31T11:53:38.479Z,71.79
2022-12-31T11:58:47.987Z,72.16
2022-12-31T12:03:51.054Z,72.75
2022-12-31T12:08:59.633Z,73.13
2022-12-31T12:14:19.686Z,73.03
2022-12-31T12:19:26.733Z,72.95
2022-12-31T12:24:30.478Z,73.23
2022-12-31T12:29:35.281Z,73.38
2022-12-31T12:34:47.579Z,73.45
2022-12-31T12:40:02.145Z,73.62
2022-12-31T12:45:14.847Z,73.60
2022-12-31T12:50:24.951Z,74.07
2022-12-31T12:56:12.801Z,73.54
2022-12-31T13:01:35.320Z,74.16
2022-12-31T13:07:08.329Z,73.89
2022-12-31T13:13:22.063Z,73.94
2022-12-31T13:18:49.156Z,74.24
2022-12-31T13:23:58.211Z,74.18
2022-12-31T13:29:03.031Z,73.81
2022-12-31T13:34:16.547Z,73.29
2022-12-31T13:39:26.180Z,73.56
2022-12-31T13:44:55.353Z,73.45
2022-12-31T13:50:25.652Z,73.93
2022-12-31T13:55:40.673Z,74.05
2022-12-31T14:01:20.919Z,73.74
2022-12-31T14:06:27.730Z,73.57
2022-12-31T14:11:45.632Z,73.68
2022-12-31T14:17:11.809Z,73.81
2022-12-31T14:22:20.405Z,73.50
2022-12-31T14:27:30.117Z,73.48
2022-12-31T14:33:02.767Z,73.33
2022-12-31T14:38:21.223Z,73.57
2022-12-31T14:43:45.597Z,73.55
2022-12-31T14:49:02.974Z,73.56
2022-12-31T14:54:06.077Z,73.20
2022-12-31T14:59:35.676Z,72.98
2022-12-31T15:04:46.291Z,72.83
2022-12-31T15:16:02.583Z,72.76
2022-12-31T15:22:02.173Z,72.40
2022-12-31T15:27:07.155Z,72.17
2022-12-31T15:32:28.617Z,72.24
2022-12-31T15:37:35.241Z,71.90
2022-12-31T15:42:49.777Z,71.77
2022-12-31T15:48:00.680Z,71.29
2022-12-31T15:53:06.399Z,70.96
2022-12-31T15:58:17.729Z,71.18
2022-12-31T16:03:24.475Z,70.94
2022-12-31T16:08:29.829Z,70.96
2022-12-31T16:13:35.302Z,70.43
2022-12-31T16:18:43.904Z,70.38
2022-12-31T16:23:51.448Z,69.60
2022-12-31T16:29:00.283Z,69.63
2022-12-31T16:34:12.360Z,69.67
2022-12-31T16:39:34.024Z,69.48
2022-12-31T16:44:37.215Z,69.46
2022-12-31T16:54:58.083Z,69.25
2022-12-31T17:00:05.038Z,69.63
2022-12-31T17:05:22.824Z,69.48
2022-12-31T17:10:44.851Z,69.41
2022-12-31T17:15:48.300Z,68.49
2022-12-31T17:20:54.098Z,68.57
2022-12-31T17:26:08.645Z,68.36
2022-12-31T17:31:36.250Z,68.50
2022-12-31T17:36:41.282Z,68.99
2022-12-31T17:41:50.357Z,68.84
2022-12-31T17:46:54.124Z,68.73
2022-12-31T17:51:57.227Z,69.08
2022-12-31T17:57:00.455Z,69.40
2022-12-31T18:02:05.589Z,69.89
2022-12-31T18:07:08.755Z,69.76
2022-12-31T18:12:14.646Z,70.45
2022-12-31T18:17:17.759Z,70.46
2022-12-31T18:22:21.264Z,70.23
2022-12-31T18:27:24.414Z,69.66
2022-12-31T18:32:30.737Z,69.64
2022-12-31T18:37:35.288Z,69.67
2022-12-31T18:42:38.603Z,69.59
2022-12-31T18:47:41.648Z,69.35
2022-12-31T18:52:44.803Z,69.54
2022-12-31T18:57:47.918Z,69.54
2022-12-31T19:02:50.998Z,69.60
2022-12-31T19:07:55.123Z,69.57
2022-12-31T19:12:58.147Z,70.34
2022-12-31T19:18:02.844Z,69.91
2022-12-31T19:23:06.327Z,69.63
2022-12-31T19:28:16.779Z,69.60
2022-12-31T19:33:20.394Z,70.17
2022-12-31T19:38:26.107Z,69.52
2022-12-31T19:43:29.584Z,69.70
2022-12-31T19:48:33.170Z,70.23
2022-12-31T19:53:36.440Z,70.15
2022-12-31T19:58:39.482Z,70.81
2022-12-31T20:03:42.593Z,69.51
2022-12-31T20:08:46.799Z,69.47
2022-12-31T20:13:52.687Z,69.27
2022-12-31T20:18:55.900Z,70.21
2022-12-31T20:23:58.980Z,70.01
2022-12-31T20:29:08.072Z,70.35
2022-12-31T20:34:11.531Z,69.88
2022-12-31T20:39:14.572Z,69.76
2022-12-31T20:44:17.611Z,70.19
2022-12-31T20:49:37.111Z,70.25
2022-12-31T20:54:43.656Z,70.54
2022-12-31T20:59:46.704Z,70.33
2022-12-31T21:04:49.833Z,71.24
2022-12-31T21:09:53.637Z,70.66
2022-12-31T21:14:56.776Z,71.37
2022-12-31T21:19:59.862Z,70.67
2022-12-31T21:25:03.514Z,70.93
2022-12-31T21:30:22.356Z,71.64
2022-12-31T21:35:45.847Z,70.86
2022-12-31T21:40:49.339Z,71.88
2022-12-31T21:46:01.312Z,71.28
2022-12-31T21:51:15.192Z,71.86
2022-12-31T21:56:21.419Z,71.76
2022-12-31T22:01:42.957Z,72.03
2022-12-31T22:06:46.223Z,72.51
2022-12-31T22:11:49.292Z,71.80
2022-12-31T22:16:52.316Z,71.25
2022-12-31T22:27:28.114Z,71.33
2022-12-31T22:32:32.846Z,71.36
2022-12-31T22:37:56.260Z,71.07
2022-12-31T22:43:00.218Z,71.15
2022-12-31T22:48:03.258Z,71.68
2022-12-31T22:53:06.274Z,70.93
2022-12-31T23:03:26.265Z,70.25
2022-12-31T23:08:29.462Z,70.69
2022-12-31T23:13:58.897Z,70.58
2022-12-31T23:19:20.403Z,70.78
2022-12-31T23:24:26.698Z,70.65
2022-12-31T23:29:29.927Z,69.96
2022-12-31T23:39:53.793Z,69.75
2022-12-31T23:44:56.804Z,69.08
2022-12-31T23:49:59.795Z,68.96
2022-12-31T23:55:03.978Z,69.15
